Impacts METAR Board
IDs:

KRYW - Lago Vista/Allen Arp, TX, US

Updated at: 0200 UTC 15 Aug 2020
Potential Impact None Slight Moderate High
Time 14/14Z 14/15Z 14/16Z 14/17Z 14/18Z 14/19Z 14/20Z 14/21Z 14/22Z 14/23Z 15/00Z 15/01Z 15/02Z
Temp80 84 88 92 96 98 100 101 102 102 100 96 92
Dewpt71 70 68 65 64 62 60 58 58 57 56 57 57
Altim30.00 29.99 29.99 29.99 29.97 29.95 29.92 29.90 29.88 29.86 29.86 29.87 29.89
VIS10 10 10 10 10 10 10 10 10 10 10 10 10
CIG-- -- -- -- -- -- -- -- -- -- -- -- --
CoverCLRCLRCLRCLRCLRCLRCLRCLRCLRCLRCLRCLRCLR
FltCatVFRVFRVFRVFRVFRVFRVFRVFRVFRVFRVFRVFRVFR
WX--------------------------
WDir220210230230180190210190170150170170180
WSpd6 7 7 9 6 6 6 4 5 6 6 5 5
WGst-- -- -- -- -- -- -- -- -- -- -- -- --
Raw hourly METARs
KRYW 141355Z AUTO 22006KT 10SM CLR 27/21 A3000 RMK AO2 T02690214
KRYW 141455Z AUTO 21007KT 10SM CLR 29/21 A2999 RMK AO2 T02880210
KRYW 141555Z AUTO 23007KT 10SM CLR 31/20 A2999 RMK AO2 T03120199
KRYW 141655Z AUTO 23009KT 10SM CLR 34/19 A2999 RMK AO2 T03350185
KRYW 141755Z AUTO 18006KT 10SM CLR 36/18 A2997 RMK AO2 T03580180 10358 20247
KRYW 141855Z AUTO 19006KT 150V210 10SM CLR 37/16 A2995 RMK AO2 T03650164
KRYW 141955Z AUTO 21006KT 160V230 10SM CLR 38/16 A2992 RMK AO2 T03800156
KRYW 142055Z AUTO 19004KT 10SM CLR 39/14 A2990 RMK AO2 T03850142
KRYW 142155Z AUTO 17005KT 10SM CLR 39/15 A2988 RMK AO2 T03900146
KRYW 142255Z AUTO 15006KT 10SM CLR 39/14 A2986 RMK AO2 T03900139
KRYW 142355Z AUTO 17006KT 10SM CLR 38/13 A2986 RMK AO2 T03760133 10396 20354
KRYW 150055Z AUTO 17005KT 10SM CLR 36/14 A2987 RMK AO2 T03550137
KRYW 150155Z AUTO 18005KT 10SM CLR 34/14 A2989 RMK AO2 T03360137